Terminal Aerodrome Forecast
Issued by NWS Wilmington, OH

Current Version | Previous Version | Graphics & Text | Print | Product List | Glossary On
Versions: 1 2 3 4 5 6 7 8 9 10 11 12 13 14 15 16 17 18 19 20 21 22 23 24 25 26 27 28 29
000
FTUS41 KILN 281137
TAFCMH
TAF
KCMH 281137Z 2812/2912 16004KT P6SM BKN110
      TEMPO 2812/2813 5SM -SHRA BR OVC035
     FM281300 17005KT 4SM RA BR VCTS BKN035CB OVC110
     FM281500 18005KT P6SM VCTS BKN040CB BKN150
     FM290300 VRB04KT P6SM BKN090
     FM290800 VRB02KT 3SM BR BKN150=

USA.gov is the U.S. government's official web portal to all federal, state and local government web resources and services.